createdAt,value
2023-06-03T00:02:06.211Z,16.79
2023-06-03T00:05:08.324Z,17.04
2023-06-03T00:08:10.500Z,16.93
2023-06-03T00:11:12.968Z,16.79
2023-06-03T00:14:14.777Z,16.74
2023-06-03T00:17:16.931Z,16.60
2023-06-03T00:20:18.972Z,16.47
2023-06-03T00:23:20.851Z,16.64
2023-06-03T00:26:23.277Z,16.59
2023-06-03T00:29:30.737Z,16.54
2023-06-03T00:32:32.963Z,16.47
2023-06-03T00:35:35.298Z,16.49
2023-06-03T00:38:37.051Z,16.37
2023-06-03T00:41:39.025Z,16.40
2023-06-03T00:44:40.946Z,16.29
2023-06-03T00:47:42.921Z,16.33
2023-06-03T00:50:45.438Z,16.29
2023-06-03T00:53:47.400Z,16.17
2023-06-03T00:56:49.232Z,16.27
2023-06-03T00:59:51.120Z,16.14
2023-06-03T01:02:53.621Z,16.23
2023-06-03T01:06:09.329Z,16.19
2023-06-03T01:09:25.154Z,15.85
2023-06-03T01:12:29.810Z,16.14
2023-06-03T01:15:33.131Z,16.10
2023-06-03T01:18:37.562Z,16.05
2023-06-03T01:21:41.773Z,16.02
2023-06-03T01:24:44.957Z,16.04
2023-06-03T01:27:50.109Z,15.96
2023-06-03T01:30:52.946Z,15.89
2023-06-03T01:33:55.193Z,15.82
2023-06-03T01:36:58.651Z,15.76
2023-06-03T01:40:01.825Z,15.80
2023-06-03T01:43:07.767Z,15.73
2023-06-03T01:46:09.920Z,15.63
2023-06-03T01:49:12.335Z,15.59
2023-06-03T01:52:14.285Z,15.51
2023-06-03T01:55:16.213Z,15.50
2023-06-03T01:58:18.496Z,15.39
2023-06-03T02:01:20.356Z,15.22
2023-06-03T02:04:22.800Z,15.05
2023-06-03T02:07:27.244Z,15.22
2023-06-03T02:10:29.059Z,15.17
2023-06-03T02:13:30.923Z,15.04
2023-06-03T02:16:33.578Z,15.06
2023-06-03T02:19:36.041Z,14.90
2023-06-03T02:22:38.626Z,14.79
2023-06-03T02:25:41.271Z,14.77
2023-06-03T02:28:43.046Z,14.75
2023-06-03T02:31:45.149Z,14.63
2023-06-03T02:34:51.537Z,14.63
2023-06-03T02:37:53.511Z,14.61
2023-06-03T02:40:55.267Z,14.63
2023-06-03T02:43:57.373Z,14.69
2023-06-03T02:46:59.118Z,14.62
2023-06-03T02:50:01.284Z,14.47
2023-06-03T02:53:05.303Z,14.51
2023-06-03T02:56:07.122Z,14.46
2023-06-03T02:59:09.064Z,14.53
2023-06-03T03:02:10.956Z,14.26
2023-06-03T03:05:12.710Z,14.40
2023-06-03T03:08:14.586Z,14.47
2023-06-03T03:11:16.576Z,14.58
2023-06-03T03:14:19.840Z,14.49
2023-06-03T03:17:24.047Z,14.45
2023-06-03T03:20:26.810Z,14.49
2023-06-03T03:23:29.798Z,14.45
2023-06-03T03:26:34.894Z,14.48
2023-06-03T03:29:36.897Z,14.53
2023-06-03T03:32:43.708Z,14.60
2023-06-03T03:35:51.457Z,14.61
2023-06-03T03:39:04.418Z,14.63
2023-06-03T03:42:10.830Z,14.56
2023-06-03T03:45:19.588Z,14.61
2023-06-03T03:48:22.685Z,14.53
2023-06-03T03:51:27.412Z,14.32
2023-06-03T03:54:29.825Z,14.56
2023-06-03T03:57:35.818Z,14.58
2023-06-03T04:00:37.772Z,14.59
2023-06-03T04:03:41.631Z,14.50
2023-06-03T04:06:44.188Z,14.52
2023-06-03T04:09:46.507Z,14.53
2023-06-03T04:12:49.952Z,14.60
2023-06-03T04:15:53.575Z,14.53
2023-06-03T04:18:55.881Z,14.65
2023-06-03T04:21:59.334Z,14.69
2023-06-03T04:25:02.207Z,14.67
2023-06-03T04:28:24.426Z,14.62
2023-06-03T04:31:26.385Z,14.52
2023-06-03T04:34:30.407Z,14.07
2023-06-03T04:37:36.589Z,14.84
2023-06-03T04:40:39.809Z,14.86
2023-06-03T04:43:46.520Z,15.02
2023-06-03T04:46:51.439Z,14.94
2023-06-03T04:49:53.880Z,15.06
2023-06-03T04:52:57.540Z,15.21
2023-06-03T04:55:59.780Z,14.81
2023-06-03T04:59:05.312Z,15.23
2023-06-03T05:02:14.713Z,15.20
2023-06-03T05:05:17.445Z,14.96
2023-06-03T05:08:19.592Z,15.23
2023-06-03T05:11:24.517Z,15.21
2023-06-03T05:14:26.539Z,15.18
2023-06-03T05:17:28.495Z,15.22
2023-06-03T05:20:32.559Z,15.20
2023-06-03T05:23:34.668Z,15.34
2023-06-03T05:26:37.731Z,15.53
2023-06-03T05:29:39.556Z,16.01
2023-06-03T05:32:43.205Z,16.62
2023-06-03T05:35:45.043Z,17.16
2023-06-03T05:38:46.848Z,17.16
2023-06-03T05:41:50.705Z,17.12
2023-06-03T05:44:53.061Z,18.08
2023-06-03T05:47:54.952Z,18.64
2023-06-03T05:50:57.406Z,18.62
2023-06-03T05:54:02.886Z,18.45
2023-06-03T05:57:05.198Z,18.69
2023-06-03T06:00:08.968Z,18.26
2023-06-03T06:03:17.271Z,18.24
2023-06-03T06:06:20.734Z,18.12
2023-06-03T06:09:22.592Z,18.43
2023-06-03T06:12:24.798Z,18.19
2023-06-03T06:15:30.580Z,18.21
2023-06-03T06:18:32.795Z,18.69
2023-06-03T06:21:35.236Z,19.00
2023-06-03T06:24:37.791Z,19.36
2023-06-03T06:27:40.159Z,19.52
2023-06-03T06:30:42.172Z,19.57
2023-06-03T06:33:49.282Z,19.25
2023-06-03T06:36:53.987Z,19.28
2023-06-03T06:40:10.115Z,19.19
2023-06-03T06:43:17.573Z,19.24
2023-06-03T06:46:24.660Z,19.36
2023-06-03T06:49:37.864Z,19.58
2023-06-03T06:52:40.030Z,19.61
2023-06-03T06:55:50.051Z,19.75
2023-06-03T06:58:55.442Z,19.65
2023-06-03T07:01:57.663Z,20.22
2023-06-03T07:04:59.620Z,20.39
2023-06-03T07:08:01.525Z,20.60
2023-06-03T07:11:05.811Z,20.38
2023-06-03T07:14:13.870Z,20.42
2023-06-03T07:17:16.033Z,20.45
2023-06-03T07:20:21.697Z,20.44
2023-06-03T07:23:29.941Z,20.17
2023-06-03T07:26:34.592Z,20.57
2023-06-03T07:29:39.681Z,20.61
2023-06-03T07:32:44.781Z,20.52
2023-06-03T07:35:47.299Z,20.71
2023-06-03T07:39:04.635Z,21.13
2023-06-03T07:42:23.668Z,22.07
2023-06-03T07:45:40.052Z,22.54
2023-06-03T07:48:41.904Z,22.65
2023-06-03T07:51:48.761Z,22.64
2023-06-03T07:54:51.140Z,22.35
2023-06-03T07:57:53.673Z,21.78
2023-06-03T08:00:58.239Z,22.08
2023-06-03T08:04:25.841Z,21.69
2023-06-03T08:07:28.510Z,21.42
2023-06-03T08:10:30.285Z,21.92
2023-06-03T08:13:33.660Z,22.26
2023-06-03T08:16:37.203Z,22.19
2023-06-03T08:19:40.003Z,21.88
2023-06-03T08:22:46.040Z,21.95
2023-06-03T08:25:48.357Z,21.92
2023-06-03T08:28:50.274Z,22.16
2023-06-03T08:31:52.161Z,22.61
2023-06-03T08:34:54.016Z,22.35
2023-06-03T08:37:56.043Z,22.16
2023-06-03T08:40:58.324Z,22.09
2023-06-03T08:44:03.728Z,22.53
2023-06-03T08:47:17.057Z,22.34
2023-06-03T08:50:22.114Z,22.33
2023-06-03T08:53:24.608Z,22.50
2023-06-03T08:56:27.158Z,22.72
2023-06-03T08:59:30.505Z,22.78
2023-06-03T09:02:33.589Z,22.81
2023-06-03T09:05:36.542Z,23.15
2023-06-03T09:08:40.934Z,23.34
2023-06-03T09:11:44.739Z,23.05
2023-06-03T09:14:48.305Z,22.99
2023-06-03T09:17:50.667Z,22.25
2023-06-03T09:20:52.570Z,22.46
2023-06-03T09:23:54.409Z,22.95
2023-06-03T09:26:56.145Z,23.25
2023-06-03T09:29:58.054Z,23.40
2023-06-03T09:32:59.937Z,23.15
2023-06-03T09:36:19.037Z,23.38
2023-06-03T09:39:35.855Z,24.03
2023-06-03T09:42:45.768Z,23.71
2023-06-03T09:45:47.492Z,23.40
2023-06-03T09:48:49.408Z,23.39
2023-06-03T09:51:51.429Z,23.68
2023-06-03T09:55:03.246Z,24.02
2023-06-03T09:58:12.430Z,24.35
2023-06-03T10:01:14.354Z,24.47
2023-06-03T10:04:22.084Z,24.78
2023-06-03T10:07:23.861Z,24.70
2023-06-03T10:10:25.716Z,24.78
2023-06-03T10:13:27.668Z,25.02
2023-06-03T10:16:29.508Z,24.73
2023-06-03T10:19:39.575Z,24.53
2023-06-03T10:22:43.465Z,24.15
2023-06-03T10:25:48.475Z,24.18
2023-06-03T10:28:51.302Z,24.23
2023-06-03T10:31:55.212Z,23.99
2023-06-03T10:35:03.371Z,24.18
2023-06-03T10:38:07.005Z,24.46
2023-06-03T10:41:11.173Z,24.77
2023-06-03T10:44:13.318Z,24.80
2023-06-03T10:47:27.098Z,24.77
2023-06-03T10:50:48.876Z,24.73
2023-06-03T10:54:28.737Z,24.92
2023-06-03T10:57:50.535Z,25.07
2023-06-03T11:00:58.268Z,25.25
2023-06-03T11:04:17.561Z,24.86
2023-06-03T11:07:32.001Z,25.14
2023-06-03T11:10:44.520Z,25.28
2023-06-03T11:13:46.497Z,25.36
2023-06-03T11:16:57.579Z,25.36
2023-06-03T11:19:59.906Z,25.16
2023-06-03T11:23:01.692Z,24.95
2023-06-03T11:26:32.494Z,24.35
2023-06-03T11:29:50.008Z,24.46
2023-06-03T11:33:10.692Z,24.17
2023-06-03T11:36:48.912Z,24.28
2023-06-03T11:40:07.919Z,24.68
2023-06-03T11:43:09.793Z,24.53
2023-06-03T11:46:12.831Z,24.50
2023-06-03T11:49:14.902Z,24.64
2023-06-03T11:52:17.252Z,24.45
2023-06-03T11:55:33.465Z,24.55
2023-06-03T11:58:37.237Z,24.55
2023-06-03T12:01:54.977Z,24.58
2023-06-03T12:05:04.861Z,24.44
2023-06-03T12:08:06.695Z,24.33
2023-06-03T12:11:08.619Z,24.30
2023-06-03T12:14:11.522Z,24.13
2023-06-03T12:17:21.300Z,24.08
2023-06-03T12:20:28.137Z,23.85
2023-06-03T12:23:30.044Z,23.63
2023-06-03T12:26:41.512Z,23.60
2023-06-03T12:29:49.033Z,23.89
2023-06-03T12:32:58.636Z,23.71
2023-06-03T12:36:00.628Z,23.67
2023-06-03T12:39:03.470Z,23.59
2023-06-03T12:42:05.609Z,23.61
2023-06-03T12:45:08.145Z,23.61
2023-06-03T12:48:10.176Z,23.75
2023-06-03T12:51:31.744Z,23.95
2023-06-03T12:54:33.728Z,24.24
2023-06-03T12:57:36.017Z,24.14
2023-06-03T13:00:38.306Z,23.94
2023-06-03T13:03:40.147Z,23.98
2023-06-03T13:06:43.329Z,23.91
2023-06-03T13:09:45.205Z,23.96
2023-06-03T13:12:48.460Z,23.77
2023-06-03T13:15:50.569Z,23.54
2023-06-03T13:21:59.095Z,23.22
2023-06-03T13:25:01.120Z,23.64
2023-06-03T13:28:02.966Z,23.56
2023-06-03T13:31:06.499Z,23.60
2023-06-03T13:34:09.314Z,23.58
2023-06-03T13:37:11.443Z,23.69
2023-06-03T13:40:13.348Z,23.89
2023-06-03T13:43:15.345Z,23.91
2023-06-03T13:46:17.224Z,24.10
2023-06-03T13:49:19.781Z,23.98
2023-06-03T13:52:22.296Z,24.09
2023-06-03T13:55:24.655Z,23.84
2023-06-03T13:58:26.541Z,23.82
2023-06-03T14:01:28.486Z,23.96
2023-06-03T14:04:31.280Z,24.12
2023-06-03T14:07:33.381Z,24.14
2023-06-03T14:10:35.130Z,23.90
2023-06-03T14:13:36.877Z,23.51
2023-06-03T14:16:38.986Z,23.69
2023-06-03T14:19:42.001Z,23.86
2023-06-03T14:22:43.938Z,23.66
2023-06-03T14:25:45.736Z,23.72
2023-06-03T14:28:47.519Z,23.48
2023-06-03T14:31:50.058Z,23.37
2023-06-03T14:34:51.940Z,23.26
2023-06-03T14:37:53.898Z,23.68
2023-06-03T14:40:55.904Z,23.71
2023-06-03T14:43:58.617Z,23.68
2023-06-03T14:47:00.476Z,23.74
2023-06-03T14:50:03.158Z,23.63
2023-06-03T14:53:06.662Z,23.75
2023-06-03T14:56:08.691Z,23.66
2023-06-03T14:59:10.604Z,23.38
2023-06-03T15:02:12.612Z,23.29
2023-06-03T15:05:14.532Z,23.35
2023-06-03T15:08:16.639Z,23.31
2023-06-03T15:11:18.572Z,23.30
2023-06-03T15:14:20.385Z,23.21
2023-06-03T15:17:22.947Z,23.22
2023-06-03T15:20:24.746Z,23.39
2023-06-03T15:23:27.001Z,23.44
2023-06-03T15:26:28.814Z,23.42
2023-06-03T15:29:30.800Z,23.35
2023-06-03T15:32:34.662Z,23.30
2023-06-03T15:35:36.641Z,23.03
2023-06-03T15:38:38.643Z,22.91
2023-06-03T15:41:47.350Z,23.01
2023-06-03T15:44:49.323Z,23.04
2023-06-03T15:47:51.195Z,23.07
2023-06-03T15:50:53.023Z,23.13
2023-06-03T15:53:54.807Z,23.05
2023-06-03T15:56:56.721Z,23.01
2023-06-03T15:59:58.739Z,23.05
2023-06-03T16:03:00.779Z,22.89
2023-06-03T16:06:02.570Z,22.79
2023-06-03T16:09:06.123Z,22.79
2023-06-03T16:12:08.788Z,22.86
2023-06-03T16:15:10.991Z,22.73
2023-06-03T16:18:12.829Z,22.62
2023-06-03T16:21:14.967Z,22.55
2023-06-03T16:24:17.731Z,22.55
2023-06-03T16:27:19.858Z,21.98
2023-06-03T16:30:21.753Z,22.43
2023-06-03T16:33:23.649Z,22.38
2023-06-03T16:36:25.424Z,22.56
2023-06-03T16:39:27.380Z,22.25
2023-06-03T16:42:29.346Z,22.48
2023-06-03T16:45:31.225Z,22.19
2023-06-03T16:48:33.031Z,22.21
2023-06-03T16:51:34.910Z,21.96
2023-06-03T16:54:36.658Z,21.61
2023-06-03T16:57:38.428Z,21.51
2023-06-03T17:00:40.381Z,21.50
2023-06-03T17:03:42.476Z,21.63
2023-06-03T17:06:44.358Z,21.63
2023-06-03T17:09:46.104Z,21.56
2023-06-03T17:12:47.888Z,21.54
2023-06-03T17:15:49.834Z,20.98
2023-06-03T17:18:52.185Z,21.12
2023-06-03T17:21:54.432Z,21.12
2023-06-03T17:24:56.427Z,21.16
2023-06-03T17:27:58.220Z,21.14
2023-06-03T17:31:00.943Z,21.18
2023-06-03T17:34:02.947Z,21.07
2023-06-03T17:37:05.124Z,20.93
2023-06-03T17:40:07.984Z,20.68
2023-06-03T17:43:09.769Z,20.50
2023-06-03T17:46:12.492Z,20.64
2023-06-03T17:49:14.489Z,20.62
2023-06-03T17:52:16.298Z,20.62
2023-06-03T17:55:19.665Z,20.41
2023-06-03T17:58:21.487Z,20.15
2023-06-03T18:01:23.344Z,20.11
2023-06-03T18:04:26.408Z,20.00
2023-06-03T18:07:29.582Z,19.98
2023-06-03T18:10:31.778Z,19.91
2023-06-03T18:13:33.653Z,19.94
2023-06-03T18:16:35.665Z,19.88
2023-06-03T18:19:37.461Z,19.58
2023-06-03T18:22:39.311Z,19.65
2023-06-03T18:25:42.757Z,19.59
2023-06-03T18:28:44.612Z,19.59
2023-06-03T18:31:46.874Z,19.45
2023-06-03T18:34:48.846Z,19.20
2023-06-03T18:37:50.758Z,19.17
2023-06-03T18:40:52.490Z,19.18
2023-06-03T18:43:54.382Z,18.88
2023-06-03T18:46:56.278Z,19.05
2023-06-03T18:49:58.072Z,19.03
2023-06-03T18:52:59.969Z,18.95
2023-06-03T18:56:01.888Z,18.88
2023-06-03T18:59:13.812Z,18.83
2023-06-03T19:02:18.949Z,18.73
2023-06-03T19:05:21.064Z,18.79
2023-06-03T19:08:23.341Z,18.66
2023-06-03T19:11:25.538Z,18.59
2023-06-03T19:14:28.752Z,18.24
2023-06-03T19:17:30.776Z,18.40
2023-06-03T19:20:32.680Z,18.34
2023-06-03T19:23:34.533Z,18.35
2023-06-03T19:26:36.444Z,18.32
2023-06-03T19:29:38.318Z,18.31
2023-06-03T19:32:43.687Z,18.28
2023-06-03T19:35:45.456Z,18.12
2023-06-03T19:38:48.020Z,18.32
2023-06-03T19:41:49.988Z,18.19
2023-06-03T19:44:52.004Z,18.06
2023-06-03T19:47:59.070Z,18.07
2023-06-03T19:51:01.248Z,18.03
2023-06-03T19:54:03.124Z,18.03
2023-06-03T19:57:08.777Z,18.00
2023-06-03T20:00:11.107Z,17.81
2023-06-03T20:03:14.497Z,17.80
2023-06-03T20:06:16.395Z,17.75
2023-06-03T20:09:19.372Z,17.79
2023-06-03T20:12:21.928Z,17.78
2023-06-03T20:15:25.709Z,17.76
2023-06-03T20:18:27.748Z,17.74
2023-06-03T20:21:29.646Z,17.63
2023-06-03T20:24:31.484Z,17.63
2023-06-03T20:27:33.356Z,17.66
2023-06-03T20:30:35.167Z,17.63
2023-06-03T20:33:37.034Z,17.56
2023-06-03T20:36:38.901Z,17.28
2023-06-03T20:39:40.732Z,17.48
2023-06-03T20:42:42.490Z,17.44
2023-06-03T20:45:44.249Z,17.38
2023-06-03T20:48:46.009Z,17.34
2023-06-03T20:51:48.081Z,17.27
2023-06-03T20:54:49.885Z,17.14
2023-06-03T20:57:51.677Z,17.13
2023-06-03T21:00:53.485Z,17.10
2023-06-03T21:03:55.343Z,17.04
2023-06-03T21:06:57.215Z,16.88
2023-06-03T21:09:58.935Z,17.00
2023-06-03T21:13:01.500Z,17.07
2023-06-03T21:16:03.398Z,16.99
2023-06-03T21:19:05.940Z,16.90
2023-06-03T21:22:07.796Z,16.95
2023-06-03T21:25:10.548Z,16.83
2023-06-03T21:28:12.286Z,16.83
2023-06-03T21:31:14.095Z,16.79
2023-06-03T21:34:16.114Z,16.87
2023-06-03T21:37:17.914Z,16.90
2023-06-03T21:40:19.849Z,16.98
2023-06-03T21:43:22.084Z,16.70
2023-06-03T21:46:24.110Z,17.03
2023-06-03T21:49:26.166Z,17.01
2023-06-03T21:52:27.945Z,16.95
2023-06-03T21:55:29.690Z,16.98
2023-06-03T21:58:31.568Z,16.73
2023-06-03T22:01:33.432Z,16.93
2023-06-03T22:04:36.147Z,16.83
2023-06-03T22:07:38.013Z,16.81
2023-06-03T22:10:39.768Z,16.72
2023-06-03T22:13:41.859Z,16.43
2023-06-03T22:16:43.689Z,16.28
2023-06-03T22:19:45.457Z,16.19
2023-06-03T22:22:58.457Z,16.18
2023-06-03T22:26:08.155Z,16.13
2023-06-03T22:29:10.179Z,16.07
2023-06-03T22:32:13.555Z,16.04
2023-06-03T22:35:15.372Z,15.79
2023-06-03T22:38:17.161Z,15.92
2023-06-03T22:41:18.944Z,15.80
2023-06-03T22:44:21.085Z,15.57
2023-06-03T22:47:22.849Z,15.78
2023-06-03T22:50:24.733Z,15.80
2023-06-03T22:53:26.599Z,15.79
2023-06-03T22:56:28.466Z,15.86
2023-06-03T22:59:30.474Z,15.55
2023-06-03T23:02:32.478Z,15.73
2023-06-03T23:05:34.284Z,15.69
2023-06-03T23:08:36.099Z,15.62
2023-06-03T23:11:38.192Z,15.05
2023-06-03T23:14:40.060Z,15.51
2023-06-03T23:17:41.996Z,15.46
2023-06-03T23:20:43.753Z,15.43
2023-06-03T23:23:45.649Z,15.35
2023-06-03T23:26:47.498Z,15.39
2023-06-03T23:29:49.280Z,15.25
2023-06-03T23:32:51.137Z,15.34
2023-06-03T23:35:53.075Z,15.40
2023-06-03T23:38:54.902Z,15.28
2023-06-03T23:41:56.798Z,15.35
2023-06-03T23:44:59.937Z,15.30
2023-06-03T23:48:02.081Z,14.96
2023-06-03T23:51:04.493Z,15.22
2023-06-03T23:54:06.466Z,15.18
2023-06-03T23:57:08.313Z,15.10
